Aachen-Merzbruck Airport


Codes: EDKA/AAH
Name: Aachen-Merzbruck Airport
City: Aachen
Country: Germany
Elevation: 623 ft.

Photos at Aachen-Merzbruck Airport


   Photos courtesy of SpottingLog. You can add your own sightings and photos by signing up for a free trial today.



No photos found.

Weather at Aachen-Merzbruck Airport


Time (UTC)DescriptionTempratureWindCloud coverageVisibilityPressureHumidity
18-Apr-2024 00:00Snow4°C2 mph, W100%4655m1011hPa88%
18-Apr-2024 03:00Moderate Rain4°C2 mph, NW100%4129m1012hPa92%
18-Apr-2024 06:00Light Rain3°C7 mph, N96%7430m1016hPa94%
18-Apr-2024 09:00Overcast Clouds5°C9 mph, N89%10000m1020hPa85%
18-Apr-2024 12:00Overcast Clouds9°C7 mph, N90%10000m1020hPa57%
18-Apr-2024 15:00Overcast Clouds11°C7 mph, NW92%10000m1020hPa50%
18-Apr-2024 18:00Light Rain8°C9 mph, NW96%10000m1020hPa71%
18-Apr-2024 21:00Overcast Clouds4°C7 mph, SW100%10000m1021hPa80%
19-Apr-2024 00:00Overcast Clouds5°C13 mph, SW100%10000m1018hPa76%
19-Apr-2024 03:00Light Rain4°C20 mph, SW100%10000m1015hPa93%
19-Apr-2024 06:00Moderate Rain5°C22 mph, SW100%4735m1012hPa95%
19-Apr-2024 09:00Light Rain7°C20 mph, W100%2203m1010hPa96%
19-Apr-2024 12:00Light Rain8°C20 mph, NW100%10000m1010hPa90%
19-Apr-2024 15:00Light Rain8°C20 mph, NW97%10000m1011hPa77%
19-Apr-2024 18:00Light Rain6°C20 mph, NW79%10000m1012hPa87%
19-Apr-2024 21:00Light Rain4°C16 mph, NW95%10000m1015hPa91%
20-Apr-2024 00:00Light Rain4°C13 mph, NW95%10000m1017hPa87%
20-Apr-2024 03:00Overcast Clouds4°C11 mph, NW100%10000m1019hPa83%
20-Apr-2024 06:00Overcast Clouds3°C11 mph, NW99%10000m1022hPa85%
20-Apr-2024 09:00Scattered Clouds7°C13 mph, N29%10000m1023hPa59%
20-Apr-2024 12:00Light Rain8°C11 mph, NW64%4237m1024hPa65%
20-Apr-2024 15:00Light Rain8°C13 mph, N95%4647m1024hPa76%
20-Apr-2024 18:00Light Rain5°C9 mph, NW98%10000m1025hPa81%
20-Apr-2024 21:00Scattered Clouds1°C4 mph, W47%10000m1027hPa87%
21-Apr-2024 00:00Light Rain4°C7 mph, NW71%8977m1025hPa94%
21-Apr-2024 03:00Light Rain3°C13 mph, NW96%3006m1024hPa94%
21-Apr-2024 06:00Light Rain3°C11 mph, N98%2518m1025hPa97%
21-Apr-2024 09:00Light Rain4°C11 mph, N100%7220m1026hPa92%
21-Apr-2024 12:00Light Rain6°C9 mph, NE100%10000m1025hPa76%
21-Apr-2024 15:00Light Rain8°C13 mph, NE88%10000m1025hPa68%
21-Apr-2024 18:00Light Rain5°C9 mph, NE71%10000m1025hPa74%
21-Apr-2024 21:00Light Rain2°C7 mph, NE58%10000m1027hPa88%
22-Apr-2024 00:00Broken Clouds1°C7 mph, NE53%10000m1027hPa91%
22-Apr-2024 03:00Scattered Clouds0°C4 mph, NE46%10000m1027hPa93%
22-Apr-2024 06:00Scattered Clouds1°C9 mph, NE33%10000m1027hPa92%
22-Apr-2024 09:00Few Clouds5°C16 mph, NE17%10000m1027hPa62%
22-Apr-2024 12:00Broken Clouds5°C16 mph, NE55%10000m1026hPa63%
22-Apr-2024 15:00Light Rain6°C16 mph, NE99%10000m1025hPa58%
22-Apr-2024 18:00Broken Clouds5°C9 mph, NE84%10000m1024hPa71%
22-Apr-2024 21:00Broken Clouds1°C7 mph, NE64%10000m1025hPa88%